createdAt,value
2022-09-11T00:01:14.531Z,13.20
2022-09-11T00:03:42.819Z,13.20
2022-09-11T00:06:11.945Z,13.30
2022-09-11T00:08:39.890Z,13.30
2022-09-11T00:11:08.405Z,13.20
2022-09-11T00:13:36.414Z,13.30
2022-09-11T00:16:06.436Z,13.30
2022-09-11T00:18:35.921Z,13.20
2022-09-11T00:21:03.875Z,13.30
2022-09-11T00:23:31.166Z,13.30
2022-09-11T00:26:04.501Z,13.20
2022-09-11T00:28:31.701Z,13.20
2022-09-11T00:31:00.365Z,13.20
2022-09-11T00:33:27.833Z,13.20
2022-09-11T00:36:03.879Z,13.20
2022-09-11T00:38:32.503Z,13.20
2022-09-11T00:41:01.215Z,13.20
2022-09-11T00:43:29.290Z,13.20
2022-09-11T00:46:02.673Z,13.20
2022-09-11T00:48:31.696Z,13.20
2022-09-11T00:50:59.084Z,13.20
2022-09-11T00:53:26.789Z,13.20
2022-09-11T00:55:56.885Z,13.20
2022-09-11T00:58:27.385Z,13.20
2022-09-11T01:00:55.776Z,13.30
2022-09-11T01:03:24.732Z,13.30
2022-09-11T01:05:52.406Z,13.30
2022-09-11T01:08:20.999Z,13.30
2022-09-11T01:11:18.599Z,13.30
2022-09-11T01:14:24.509Z,13.30
2022-09-11T01:16:54.591Z,13.30
2022-09-11T01:19:37.363Z,13.30
2022-09-11T01:22:23.176Z,13.30
2022-09-11T01:24:56.032Z,13.30
2022-09-11T01:27:42.808Z,13.30
2022-09-11T01:30:21.038Z,13.30
2022-09-11T01:33:01.842Z,13.30
2022-09-11T01:35:47.208Z,13.30
2022-09-11T01:38:29.225Z,13.30
2022-09-11T01:40:59.286Z,13.30
2022-09-11T01:43:34.322Z,13.30
2022-09-11T01:46:03.288Z,13.30
2022-09-11T01:48:38.983Z,13.30
2022-09-11T01:51:06.548Z,13.30
2022-09-11T01:53:37.470Z,13.20
2022-09-11T01:56:13.397Z,13.30
2022-09-11T01:58:41.994Z,13.20
2022-09-11T02:01:12.888Z,13.30
2022-09-11T02:03:42.585Z,13.30
2022-09-11T02:06:13.296Z,13.30
2022-09-11T02:08:51.362Z,13.30
2022-09-11T02:11:21.805Z,13.30
2022-09-11T02:14:10.371Z,13.30
2022-09-11T02:16:50.211Z,13.30
2022-09-11T02:19:23.085Z,13.30
2022-09-11T02:21:53.246Z,13.30
2022-09-11T02:24:20.902Z,13.30
2022-09-11T02:26:54.271Z,13.30
2022-09-11T02:29:21.778Z,13.30
2022-09-11T02:31:49.804Z,13.30
2022-09-11T02:34:17.881Z,13.30
2022-09-11T02:37:00.613Z,13.40
2022-09-11T02:39:38.009Z,13.40
2022-09-11T02:42:24.506Z,13.30
2022-09-11T02:44:54.789Z,13.30
2022-09-11T02:47:49.830Z,13.30
2022-09-11T02:50:23.654Z,13.30
2022-09-11T02:52:58.124Z,13.40
2022-09-11T02:55:31.782Z,13.40
2022-09-11T02:58:15.628Z,13.40
2022-09-11T03:00:47.794Z,13.40
2022-09-11T03:03:15.533Z,13.40
2022-09-11T03:05:43.225Z,13.40
2022-09-11T03:08:10.465Z,13.40
2022-09-11T03:10:38.630Z,13.40
2022-09-11T03:13:08.892Z,13.40
2022-09-11T03:15:36.117Z,13.30
2022-09-11T03:18:05.260Z,13.30
2022-09-11T03:20:34.120Z,13.40
2022-09-11T03:23:01.418Z,13.40
2022-09-11T03:25:29.853Z,13.40
2022-09-11T03:27:59.427Z,13.30
2022-09-11T03:30:27.279Z,13.30
2022-09-11T03:32:54.519Z,13.30
2022-09-11T03:35:21.757Z,13.30
2022-09-11T03:37:50.358Z,13.30
2022-09-11T03:40:17.579Z,13.30
2022-09-11T03:42:44.843Z,13.30
2022-09-11T03:45:14.262Z,13.30
2022-09-11T03:47:41.926Z,13.30
2022-09-11T03:50:09.673Z,13.30
2022-09-11T03:52:36.973Z,13.30
2022-09-11T03:55:05.874Z,13.30
2022-09-11T03:57:34.061Z,13.30
2022-09-11T04:00:02.377Z,13.30
2022-09-11T04:02:47.446Z,13.20
2022-09-11T04:05:25.999Z,13.20
2022-09-11T04:07:55.077Z,13.20
2022-09-11T04:10:22.398Z,13.20
2022-09-11T04:12:49.645Z,13.20
2022-09-11T04:15:19.773Z,13.20
2022-09-11T04:17:46.999Z,13.20
2022-09-11T04:20:14.214Z,13.30
2022-09-11T04:22:42.952Z,13.30
2022-09-11T04:25:11.091Z,13.20
2022-09-11T04:27:38.385Z,13.20
2022-09-11T04:30:07.407Z,13.20
2022-09-11T04:32:34.638Z,13.30
2022-09-11T04:35:02.622Z,13.30
2022-09-11T04:37:35.642Z,13.30
2022-09-11T04:40:03.760Z,13.30
2022-09-11T04:42:31.985Z,13.30
2022-09-11T04:44:59.210Z,13.30
2022-09-11T04:47:26.425Z,13.30
2022-09-11T04:49:54.225Z,13.30
2022-09-11T04:52:21.783Z,13.30
2022-09-11T04:54:48.982Z,13.20
2022-09-11T04:57:17.745Z,13.30
2022-09-11T04:59:44.950Z,13.30
2022-09-11T05:02:13.590Z,13.30
2022-09-11T05:04:44.047Z,13.30
2022-09-11T05:07:13.422Z,13.40
2022-09-11T05:09:42.759Z,13.40
2022-09-11T05:12:11.001Z,13.40
2022-09-11T05:14:38.245Z,13.50
2022-09-11T05:17:06.247Z,13.50
2022-09-11T05:19:37.425Z,13.50
2022-09-11T05:22:07.629Z,13.40
2022-09-11T05:24:35.974Z,13.50
2022-09-11T05:27:03.316Z,13.50
2022-09-11T05:29:32.766Z,13.50
2022-09-11T05:32:09.468Z,13.50
2022-09-11T05:34:36.697Z,13.50
2022-09-11T05:37:04.186Z,13.50
2022-09-11T05:39:36.726Z,13.50
2022-09-11T05:42:04.778Z,13.50
2022-09-11T05:44:36.977Z,13.50
2022-09-11T05:47:04.749Z,13.60
2022-09-11T05:49:32.580Z,13.60
2022-09-11T05:52:01.616Z,13.60
2022-09-11T05:54:31.555Z,13.60
2022-09-11T05:57:06.911Z,13.60
2022-09-11T05:59:36.529Z,13.60
2022-09-11T06:02:03.846Z,13.60
2022-09-11T06:04:39.617Z,13.60
2022-09-11T06:07:08.032Z,13.70
2022-09-11T06:09:35.849Z,13.70
2022-09-11T06:12:03.297Z,13.70
2022-09-11T06:14:30.694Z,13.70
2022-09-11T06:16:57.965Z,13.70
2022-09-11T06:19:26.960Z,13.80
2022-09-11T06:21:56.555Z,13.80
2022-09-11T06:24:37.543Z,13.80
2022-09-11T06:27:05.582Z,13.80
2022-09-11T06:29:35.097Z,13.80
2022-09-11T06:32:03.846Z,13.90
2022-09-11T06:34:32.715Z,13.90
2022-09-11T06:37:04.695Z,13.90
2022-09-11T06:39:34.190Z,14.00
2022-09-11T06:42:02.789Z,14.00
2022-09-11T06:44:35.042Z,14.00
2022-09-11T06:47:03.924Z,14.00
2022-09-11T06:49:32.513Z,14.00
2022-09-11T06:52:18.406Z,14.00
2022-09-11T06:54:55.496Z,14.10
2022-09-11T06:57:22.808Z,14.00
2022-09-11T06:59:50.039Z,14.10
2022-09-11T07:02:17.308Z,14.10
2022-09-11T07:04:47.387Z,14.10
2022-09-11T07:07:14.977Z,14.10
2022-09-11T07:09:42.858Z,14.20
2022-09-11T07:12:11.779Z,14.20
2022-09-11T07:14:39.736Z,14.20
2022-09-11T07:17:12.952Z,14.20
2022-09-11T07:19:43.197Z,14.20
2022-09-11T07:22:11.186Z,14.20
2022-09-11T07:24:38.457Z,14.30
2022-09-11T07:27:05.789Z,14.30
2022-09-11T07:29:35.913Z,14.30
2022-09-11T07:32:03.254Z,14.30
2022-09-11T07:34:31.295Z,14.40
2022-09-11T07:37:02.797Z,14.40
2022-09-11T07:39:30.063Z,14.40
2022-09-11T07:42:04.496Z,14.40
2022-09-11T07:44:34.470Z,14.50
2022-09-11T07:47:02.502Z,14.50
2022-09-11T07:49:32.917Z,14.50
2022-09-11T07:52:01.100Z,14.60
2022-09-11T07:54:37.262Z,14.70
2022-09-11T07:57:05.666Z,14.80
2022-09-11T07:59:32.916Z,14.90
2022-09-11T08:02:00.291Z,14.90
2022-09-11T08:04:27.630Z,15.00
2022-09-11T08:06:54.922Z,15.10
2022-09-11T08:09:27.542Z,15.20
2022-09-11T08:11:58.626Z,15.20
2022-09-11T08:14:27.324Z,15.20
2022-09-11T08:16:57.503Z,15.20
2022-09-11T08:19:27.808Z,15.30
2022-09-11T08:21:57.093Z,15.20
2022-09-11T08:24:24.462Z,15.30
2022-09-11T08:26:57.054Z,15.30
2022-09-11T08:29:26.118Z,15.30
2022-09-11T08:31:53.884Z,15.30
2022-09-11T08:34:22.358Z,15.30
2022-09-11T08:36:51.973Z,15.20
2022-09-11T08:39:19.551Z,15.20
2022-09-11T08:41:56.491Z,15.20
2022-09-11T08:44:39.386Z,15.20
2022-09-11T08:47:38.771Z,15.20
2022-09-11T08:50:23.212Z,15.10
2022-09-11T08:52:51.213Z,15.10
2022-09-11T08:55:28.933Z,15.20
2022-09-11T08:58:06.315Z,15.20
2022-09-11T09:00:45.949Z,15.20
2022-09-11T09:03:39.864Z,15.20
2022-09-11T09:06:29.081Z,15.20
2022-09-11T09:09:24.255Z,15.20
2022-09-11T09:11:58.505Z,15.20
2022-09-11T09:14:48.393Z,15.30
2022-09-11T09:17:20.212Z,15.30
2022-09-11T09:20:00.565Z,15.30
2022-09-11T09:22:35.440Z,15.20
2022-09-11T09:25:10.033Z,15.20
2022-09-11T09:27:40.730Z,15.20
2022-09-11T09:30:14.927Z,15.10
2022-09-11T09:32:45.929Z,15.10
2022-09-11T09:35:29.230Z,15.10
2022-09-11T09:37:56.444Z,15.10
2022-09-11T09:40:24.389Z,15.00
2022-09-11T09:43:12.870Z,15.00
2022-09-11T09:46:01.682Z,15.00
2022-09-11T09:48:29.536Z,15.00
2022-09-11T09:50:56.746Z,15.00
2022-09-11T09:53:29.342Z,15.00
2022-09-11T09:55:56.851Z,15.00
2022-09-11T09:58:26.116Z,15.00
2022-09-11T10:00:53.317Z,15.00
2022-09-11T10:03:22.185Z,15.00
2022-09-11T10:05:54.444Z,15.00
2022-09-11T10:08:35.462Z,15.00
2022-09-11T10:11:10.667Z,15.00
2022-09-11T10:13:45.399Z,15.00
2022-09-11T10:16:23.888Z,15.00
2022-09-11T10:18:51.380Z,15.00
2022-09-11T10:21:30.252Z,15.00
2022-09-11T10:24:02.257Z,15.00
2022-09-11T10:26:46.407Z,15.00
2022-09-11T10:29:18.441Z,15.00
2022-09-11T10:31:52.843Z,15.00
2022-09-11T10:34:20.662Z,15.00
2022-09-11T10:37:00.854Z,14.90
2022-09-11T10:39:30.529Z,14.90
2022-09-11T10:42:02.069Z,14.90
2022-09-11T10:44:29.623Z,15.00
2022-09-11T10:47:04.289Z,15.00
2022-09-11T10:49:31.515Z,15.10
2022-09-11T10:51:59.780Z,15.20
2022-09-11T10:54:58.437Z,15.30
2022-09-11T10:57:35.349Z,15.40
2022-09-11T11:00:13.197Z,15.40
2022-09-11T11:02:44.445Z,15.40
2022-09-11T11:05:30.424Z,15.40
2022-09-11T11:08:19.056Z,15.40
2022-09-11T11:11:14.047Z,15.50
2022-09-11T11:13:46.842Z,15.60
2022-09-11T11:16:51.501Z,15.80
2022-09-11T11:19:56.734Z,16.00
2022-09-11T11:23:03.500Z,16.10
2022-09-11T11:25:48.722Z,16.10
2022-09-11T11:28:37.799Z,16.10
2022-09-11T11:31:27.931Z,15.90
2022-09-11T11:34:22.476Z,15.90
2022-09-11T11:37:16.879Z,15.80
2022-09-11T11:40:12.224Z,15.80
2022-09-11T11:42:43.901Z,15.70
2022-09-11T11:45:20.858Z,15.60
2022-09-11T11:47:48.688Z,15.60
2022-09-11T11:50:49.183Z,15.50
2022-09-11T11:53:34.458Z,15.50
2022-09-11T11:56:19.909Z,15.60
2022-09-11T11:58:47.609Z,15.70
2022-09-11T12:01:22.315Z,15.90
2022-09-11T12:04:10.410Z,16.00
2022-09-11T12:06:37.623Z,16.30
2022-09-11T12:09:04.866Z,16.50
2022-09-11T12:11:33.076Z,16.50
2022-09-11T12:14:00.329Z,16.40
2022-09-11T12:16:34.705Z,16.40
2022-09-11T12:19:04.037Z,16.30
2022-09-11T12:21:31.680Z,16.20
2022-09-11T12:23:59.850Z,16.20
2022-09-11T12:26:27.482Z,16.10
2022-09-11T12:29:30.545Z,16.10
2022-09-11T12:32:00.591Z,16.10
2022-09-11T12:34:47.846Z,16.20
2022-09-11T12:37:32.098Z,16.20
2022-09-11T12:40:17.080Z,16.20
2022-09-11T12:42:56.471Z,16.20
2022-09-11T12:45:37.201Z,16.10
2022-09-11T12:48:06.119Z,16.10
2022-09-11T12:50:33.344Z,16.00
2022-09-11T12:53:02.474Z,16.00
2022-09-11T12:55:40.792Z,16.00
2022-09-11T12:58:20.210Z,15.90
2022-09-11T13:01:00.023Z,15.90
2022-09-11T13:03:30.122Z,15.80
2022-09-11T13:06:00.036Z,15.80
2022-09-11T13:08:28.837Z,15.70
2022-09-11T13:11:33.659Z,15.70
2022-09-11T13:14:01.211Z,15.60
2022-09-11T13:16:31.138Z,15.50
2022-09-11T13:19:17.734Z,15.40
2022-09-11T13:21:45.848Z,15.30
2022-09-11T13:24:32.839Z,15.30
2022-09-11T13:27:08.446Z,15.30
2022-09-11T13:29:36.886Z,15.30
2022-09-11T13:32:11.401Z,15.30
2022-09-11T13:34:38.670Z,15.40
2022-09-11T13:37:10.189Z,15.40
2022-09-11T13:39:40.973Z,15.50
2022-09-11T13:42:12.822Z,15.50
2022-09-11T13:44:44.649Z,15.50
2022-09-11T13:47:25.705Z,15.50
2022-09-11T13:50:00.683Z,15.60
2022-09-11T13:52:30.488Z,15.60
2022-09-11T13:54:59.579Z,15.60
2022-09-11T13:57:31.901Z,15.60
2022-09-11T14:00:00.403Z,15.60
2022-09-11T14:02:44.157Z,15.60
2022-09-11T14:05:26.325Z,15.60
2022-09-11T14:08:24.636Z,15.70
2022-09-11T14:10:54.630Z,15.70
2022-09-11T14:13:41.930Z,15.70
2022-09-11T14:16:13.444Z,15.80
2022-09-11T14:18:53.873Z,15.80
2022-09-11T14:21:40.923Z,15.80
2022-09-11T14:24:33.519Z,15.90
2022-09-11T14:27:01.980Z,15.90
2022-09-11T14:29:33.137Z,16.00
2022-09-11T14:32:31.978Z,16.10
2022-09-11T14:35:00.323Z,16.10
2022-09-11T14:37:28.374Z,16.20
2022-09-11T14:39:59.312Z,16.30
2022-09-11T14:42:29.082Z,16.40
2022-09-11T14:44:56.321Z,16.40
2022-09-11T14:47:27.865Z,16.40
2022-09-11T14:49:56.185Z,16.40
2022-09-11T14:52:25.611Z,16.30
2022-09-11T14:54:52.885Z,16.20
2022-09-11T14:57:22.890Z,16.20
2022-09-11T14:59:50.513Z,16.10
2022-09-11T15:02:25.608Z,16.10
2022-09-11T15:04:53.607Z,16.00
2022-09-11T15:07:23.358Z,15.90
2022-09-11T15:09:51.503Z,15.80
2022-09-11T15:12:19.239Z,15.80
2022-09-11T15:14:57.767Z,15.70
2022-09-11T15:17:28.153Z,15.70
2022-09-11T15:19:55.394Z,15.70
2022-09-11T15:22:23.176Z,15.70
2022-09-11T15:24:50.901Z,15.70
2022-09-11T15:27:19.131Z,15.70
2022-09-11T15:29:46.359Z,15.70
2022-09-11T15:32:14.348Z,15.70
2022-09-11T15:34:42.005Z,15.70
2022-09-11T15:37:09.373Z,15.70
2022-09-11T15:39:36.662Z,15.70
2022-09-11T15:42:04.048Z,15.80
2022-09-11T15:44:31.424Z,15.80
2022-09-11T15:46:59.166Z,15.90
2022-09-11T15:49:29.969Z,15.90
2022-09-11T15:51:58.158Z,16.00
2022-09-11T15:54:26.037Z,15.90
2022-09-11T15:56:53.316Z,15.90
2022-09-11T15:59:20.680Z,15.90
2022-09-11T16:01:47.974Z,16.00
2022-09-11T16:04:18.640Z,15.90
2022-09-11T16:06:46.432Z,15.90
2022-09-11T16:09:14.544Z,15.90
2022-09-11T16:11:42.429Z,15.90
2022-09-11T16:14:19.374Z,15.90
2022-09-11T16:16:49.650Z,15.90
2022-09-11T16:19:17.761Z,16.00
2022-09-11T16:21:45.018Z,15.90
2022-09-11T16:24:14.594Z,15.90
2022-09-11T16:26:43.976Z,15.90
2022-09-11T16:29:12.445Z,15.90
2022-09-11T16:31:40.041Z,15.90
2022-09-11T16:34:07.555Z,15.90
2022-09-11T16:36:41.772Z,15.80
2022-09-11T16:39:11.555Z,15.90
2022-09-11T16:41:38.893Z,15.90
2022-09-11T16:44:10.756Z,15.90
2022-09-11T16:46:38.109Z,15.90
2022-09-11T16:49:06.247Z,15.90
2022-09-11T16:51:34.111Z,15.90
2022-09-11T16:54:02.541Z,15.80
2022-09-11T16:56:30.209Z,15.80
2022-09-11T16:58:57.435Z,15.80
2022-09-11T17:01:26.061Z,15.70
2022-09-11T17:03:54.739Z,15.70
2022-09-11T17:06:22.850Z,15.70
2022-09-11T17:08:50.718Z,15.70
2022-09-11T17:11:19.354Z,15.60
2022-09-11T17:13:46.620Z,15.60
2022-09-11T17:16:19.564Z,15.50
2022-09-11T17:18:47.998Z,15.50
2022-09-11T17:21:16.251Z,15.50
2022-09-11T17:23:43.528Z,15.40
2022-09-11T17:26:12.543Z,15.40
2022-09-11T17:28:40.274Z,15.40
2022-09-11T17:31:08.835Z,15.30
2022-09-11T17:33:38.073Z,15.30
2022-09-11T17:36:05.654Z,15.20
2022-09-11T17:38:33.030Z,15.20
2022-09-11T17:41:01.894Z,15.20
2022-09-11T17:43:29.246Z,15.20
2022-09-11T17:46:06.130Z,15.10
2022-09-11T17:48:33.869Z,15.10
2022-09-11T17:51:16.392Z,15.10
2022-09-11T17:53:45.101Z,15.00
2022-09-11T17:56:18.033Z,15.00
2022-09-11T17:58:45.879Z,14.90
2022-09-11T18:01:16.782Z,14.90
2022-09-11T18:03:44.726Z,14.90
2022-09-11T18:06:27.742Z,14.90
2022-09-11T18:09:00.287Z,14.90
2022-09-11T18:11:28.489Z,14.80
2022-09-11T18:13:55.710Z,14.80
2022-09-11T18:16:23.084Z,14.80
2022-09-11T18:18:50.327Z,14.80
2022-09-11T18:21:17.553Z,14.80
2022-09-11T18:23:45.024Z,14.80
2022-09-11T18:26:29.794Z,14.70
2022-09-11T18:29:00.029Z,14.70
2022-09-11T18:31:30.361Z,14.70
2022-09-11T18:34:00.060Z,14.70
2022-09-11T18:36:28.546Z,14.60
2022-09-11T18:38:57.267Z,14.60
2022-09-11T18:41:24.535Z,14.60
2022-09-11T18:43:55.170Z,14.60
2022-09-11T18:46:22.550Z,14.60
2022-09-11T18:48:52.663Z,14.60
2022-09-11T18:51:20.087Z,14.50
2022-09-11T18:53:47.917Z,14.50
2022-09-11T18:56:15.146Z,14.50
2022-09-11T18:58:42.412Z,14.50
2022-09-11T19:01:11.509Z,14.50
2022-09-11T19:03:42.134Z,14.40
2022-09-11T19:06:14.317Z,14.40
2022-09-11T19:08:42.675Z,14.40
2022-09-11T19:11:11.349Z,14.40
2022-09-11T19:13:38.824Z,14.40
2022-09-11T19:16:06.815Z,14.30
2022-09-11T19:18:34.563Z,14.30
2022-09-11T19:21:04.017Z,14.30
2022-09-11T19:23:32.158Z,14.30
2022-09-11T19:26:11.997Z,14.30
2022-09-11T19:28:40.993Z,14.30
2022-09-11T19:31:08.600Z,14.20
2022-09-11T19:33:37.031Z,14.20
2022-09-11T19:36:10.722Z,14.20
2022-09-11T19:38:41.017Z,14.10
2022-09-11T19:41:12.815Z,14.00
2022-09-11T19:43:40.880Z,14.00
2022-09-11T19:46:12.933Z,13.90
2022-09-11T19:48:40.452Z,13.90
2022-09-11T19:51:41.004Z,13.90
2022-09-11T19:54:08.438Z,13.90
2022-09-11T19:56:37.076Z,13.80
2022-09-11T19:59:05.205Z,13.80
2022-09-11T20:01:32.549Z,13.80
2022-09-11T20:04:00.730Z,13.70
2022-09-11T20:06:32.453Z,13.70
2022-09-11T20:09:26.862Z,13.70
2022-09-11T20:11:47.058Z,13.60
2022-09-11T20:14:14.267Z,13.60
2022-09-11T20:16:41.612Z,13.50
2022-09-11T20:19:09.350Z,13.50
2022-09-11T20:21:36.656Z,13.40
2022-09-11T20:24:06.129Z,13.40
2022-09-11T20:26:33.495Z,13.30
2022-09-11T20:29:02.426Z,13.30
2022-09-11T20:31:31.634Z,13.30
2022-09-11T20:34:00.720Z,13.30
2022-09-11T20:36:29.916Z,13.30
2022-09-11T20:38:58.335Z,13.30
2022-09-11T20:41:29.482Z,13.30
2022-09-11T20:43:57.758Z,13.20
2022-09-11T20:46:25.296Z,13.20
2022-09-11T20:48:53.044Z,13.10
2022-09-11T20:51:20.958Z,13.10
2022-09-11T20:53:48.402Z,13.10
2022-09-11T20:56:17.550Z,13.00
2022-09-11T20:58:44.865Z,13.00
2022-09-11T21:01:13.878Z,13.00
2022-09-11T21:03:45.839Z,13.00
2022-09-11T21:06:13.319Z,13.10
2022-09-11T21:08:42.103Z,13.10
2022-09-11T21:11:09.803Z,13.10
2022-09-11T21:13:37.701Z,13.10
2022-09-11T21:16:06.579Z,13.00
2022-09-11T21:18:33.983Z,13.00
2022-09-11T21:21:01.208Z,12.90
2022-09-11T21:23:28.425Z,12.80
2022-09-11T21:25:55.810Z,12.80
2022-09-11T21:28:23.171Z,12.80
2022-09-11T21:30:50.961Z,12.80
2022-09-11T21:33:18.291Z,12.80
2022-09-11T21:35:50.851Z,12.80
2022-09-11T21:38:19.506Z,12.70
2022-09-11T21:40:46.833Z,12.70
2022-09-11T21:43:14.193Z,12.70
2022-09-11T21:45:41.603Z,12.70
2022-09-11T21:48:09.430Z,12.70
2022-09-11T21:50:37.261Z,12.70
2022-09-11T21:53:04.852Z,12.70
2022-09-11T21:55:36.010Z,12.70
2022-09-11T21:58:03.259Z,12.70
2022-09-11T22:00:30.538Z,12.70
2022-09-11T22:02:57.753Z,12.60
2022-09-11T22:05:24.998Z,12.60
2022-09-11T22:07:52.238Z,12.60
2022-09-11T22:10:19.649Z,12.60
2022-09-11T22:12:46.954Z,12.60
2022-09-11T22:15:14.191Z,12.70
2022-09-11T22:17:41.400Z,12.70
2022-09-11T22:20:08.877Z,12.60
2022-09-11T22:22:37.674Z,12.60
2022-09-11T22:25:06.642Z,12.60
2022-09-11T22:27:34.070Z,12.60
2022-09-11T22:30:01.480Z,12.60
2022-09-11T22:32:28.685Z,12.60
2022-09-11T22:34:55.907Z,12.60
2022-09-11T22:37:23.117Z,12.60
2022-09-11T22:39:50.363Z,12.50
2022-09-11T22:42:17.641Z,12.50
2022-09-11T22:44:44.854Z,12.50
2022-09-11T22:47:12.079Z,12.40
2022-09-11T22:49:39.282Z,12.40
2022-09-11T22:52:08.333Z,12.40
2022-09-11T22:54:35.539Z,12.40
2022-09-11T22:57:02.753Z,12.30
2022-09-11T22:59:29.994Z,12.30
2022-09-11T23:01:57.278Z,12.30
2022-09-11T23:04:24.498Z,12.30
2022-09-11T23:07:10.279Z,12.30
2022-09-11T23:09:38.200Z,12.20
2022-09-11T23:12:05.631Z,12.10
2022-09-11T23:14:33.885Z,12.10
2022-09-11T23:17:01.202Z,12.10
2022-09-11T23:19:31.870Z,12.10
2022-09-11T23:21:59.087Z,12.10
2022-09-11T23:24:26.389Z,12.10
2022-09-11T23:26:53.630Z,12.10
2022-09-11T23:29:20.845Z,12.10
2022-09-11T23:31:48.144Z,12.00
2022-09-11T23:34:15.981Z,12.00
2022-09-11T23:36:44.356Z,11.90
2022-09-11T23:39:11.670Z,11.80
2022-09-11T23:41:38.898Z,11.80
2022-09-11T23:44:06.190Z,11.80
2022-09-11T23:46:33.487Z,11.80
2022-09-11T23:49:00.720Z,11.70
2022-09-11T23:51:27.938Z,11.70
2022-09-11T23:53:55.256Z,11.60
2022-09-11T23:56:22.561Z,11.60
2022-09-11T23:58:50.065Z,11.60
